sensor_id;sensor_type;location;lat;lon;timestamp;pressure;altitude;pressure_sealevel;temperature;humidity
67015;BME280;1033;52.560;13.374;2024-03-23T00:55:10;100228.34;;;8.51;100.00
67015;BME280;1033;52.560;13.374;2024-03-23T00:57:37;100222.69;;;8.39;100.00
67015;BME280;1033;52.560;13.374;2024-03-23T01:00:06;100217.09;;;8.41;100.00
67015;BME280;1033;52.560;13.374;2024-03-23T01:02:36;100213.78;;;8.39;100.00
67015;BME280;1033;52.560;13.374;2024-03-23T01:05:05;100214.19;;;8.36;100.00
67015;BME280;1033;52.560;13.374;2024-03-23T01:07:32;100218.34;;;8.45;100.00
67015;BME280;1033;52.560;13.374;2024-03-23T01:10:00;100218.69;;;8.28;100.00
67015;BME280;1033;52.560;13.374;2024-03-23T01:12:28;100214.19;;;8.36;100.00
67015;BME280;1033;52.560;13.374;2024-03-23T01:14:56;100201.38;;;8.51;100.00
67015;BME280;1033;52.560;13.374;2024-03-23T01:17:23;100212.34;;;8.49;100.00
67015;BME280;1033;52.560;13.374;2024-03-23T01:19:51;100209.44;;;8.44;100.00
67015;BME280;1033;52.560;13.374;2024-03-23T01:22:19;100208.59;;;8.31;100.00
67015;BME280;1033;52.560;13.374;2024-03-23T01:24:47;100199.66;;;8.30;100.00
67015;BME280;1033;52.560;13.374;2024-03-23T01:27:13;100200.28;;;8.39;100.00
67015;BME280;1033;52.560;13.374;2024-03-23T01:29:43;100194.28;;;8.37;100.00
67015;BME280;1033;52.560;13.374;2024-03-23T01:32:10;100195.69;;;8.26;100.00
67015;BME280;1033;52.560;13.374;2024-03-23T01:34:38;100192.56;;;8.29;100.00
67015;BME280;1033;52.560;13.374;2024-03-23T01:37:05;100180.19;;;8.41;100.00
67015;BME280;1033;52.560;13.374;2024-03-23T01:39:33;100177.94;;;8.51;100.00
67015;BME280;1033;52.560;13.374;2024-03-23T01:42:00;100170.66;;;8.32;100.00
67015;BME280;1033;52.560;13.374;2024-03-23T01:44:28;100150.47;;;8.28;100.00
67015;BME280;1033;52.560;13.374;2024-03-23T01:46:56;100148.59;;;8.28;100.00
67015;BME280;1033;52.560;13.374;2024-03-23T01:49:24;100151.06;;;8.10;100.00
67015;BME280;1033;52.560;13.374;2024-03-23T01:51:52;100147.09;;;7.93;100.00
67015;BME280;1033;52.560;13.374;2024-03-23T01:54:20;100141.91;;;7.92;100.00
67015;BME280;1033;52.560;13.374;2024-03-23T01:56:47;100142.59;;;8.20;100.00
67015;BME280;1033;52.560;13.374;2024-03-23T01:59:18;100139.47;;;8.03;100.00
67015;BME280;1033;52.560;13.374;2024-03-23T02:01:45;100146.94;;;8.14;100.00
67015;BME280;1033;52.560;13.374;2024-03-23T02:04:16;100136.63;;;8.31;100.00
67015;BME280;1033;52.560;13.374;2024-03-23T02:06:42;100130.63;;;8.36;100.00
67015;BME280;1033;52.560;13.374;2024-03-23T02:09:10;100131.88;;;8.40;100.00
67015;BME280;1033;52.560;13.374;2024-03-23T02:11:38;100127.72;;;8.44;100.00
67015;BME280;1033;52.560;13.374;2024-03-23T02:14:05;100137.06;;;8.41;100.00
67015;BME280;1033;52.560;13.374;2024-03-23T02:16:34;100131.44;;;8.29;100.00
67015;BME280;1033;52.560;13.374;2024-03-23T02:19:02;100135.97;;;8.29;100.00
67015;BME280;1033;52.560;13.374;2024-03-23T02:21:33;100131.19;;;8.24;100.00
67015;BME280;1033;52.560;13.374;2024-03-23T02:24:02;100128.50;;;8.18;100.00
67015;BME280;1033;52.560;13.374;2024-03-23T02:26:29;100135.31;;;8.07;100.00
67015;BME280;1033;52.560;13.374;2024-03-23T02:28:58;100123.91;;;8.05;100.00
67015;BME280;1033;52.560;13.374;2024-03-23T02:31:25;100119.97;;;8.14;100.00
67015;BME280;1033;52.560;13.374;2024-03-23T02:33:53;100110.44;;;8.05;100.00
67015;BME280;1033;52.560;13.374;2024-03-23T02:36:20;100105.28;;;8.17;100.00
67015;BME280;1033;52.560;13.374;2024-03-23T02:38:48;100107.53;;;8.13;100.00
67015;BME280;1033;52.560;13.374;2024-03-23T02:41:17;100094.25;;;8.05;100.00
67015;BME280;1033;52.560;13.374;2024-03-23T02:43:49;100090.53;;;8.06;100.00
67015;BME280;1033;52.560;13.374;2024-03-23T02:46:17;100083.28;;;8.20;100.00
67015;BME280;1033;52.560;13.374;2024-03-23T02:48:45;100091.00;;;8.29;100.00
67015;BME280;1033;52.560;13.374;2024-03-23T02:51:15;100078.16;;;8.32;100.00
67015;BME280;1033;52.560;13.374;2024-03-23T02:53:43;100080.59;;;8.13;100.00
67015;BME280;1033;52.560;13.374;2024-03-23T02:56:10;100081.66;;;8.25;100.00
67015;BME280;1033;52.560;13.374;2024-03-23T02:58:44;100078.78;;;8.40;100.00
67015;BME280;1033;52.560;13.374;2024-03-23T03:01:11;100086.47;;;8.37;100.00
67015;BME280;1033;52.560;13.374;2024-03-23T03:03:39;100082.88;;;8.16;100.00
67015;BME280;1033;52.560;13.374;2024-03-23T03:06:07;100085.81;;;8.35;100.00
67015;BME280;1033;52.560;13.374;2024-03-23T03:08:35;100072.09;;;8.16;100.00
67015;BME280;1033;52.560;13.374;2024-03-23T03:11:02;100071.91;;;8.24;100.00
67015;BME280;1033;52.560;13.374;2024-03-23T03:13:30;100071.09;;;8.17;100.00
67015;BME280;1033;52.560;13.374;2024-03-23T03:15:58;100067.13;;;8.26;100.00
67015;BME280;1033;52.560;13.374;2024-03-23T03:18:27;100062.56;;;8.20;100.00
67015;BME280;1033;52.560;13.374;2024-03-23T03:20:55;100059.06;;;8.26;100.00
67015;BME280;1033;52.560;13.374;2024-03-23T03:23:24;100055.31;;;8.21;100.00
67015;BME280;1033;52.560;13.374;2024-03-23T03:25:50;100057.34;;;7.99;100.00
67015;BME280;1033;52.560;13.374;2024-03-23T03:28:19;100056.34;;;8.07;100.00
67015;BME280;1033;52.560;13.374;2024-03-23T03:30:46;100061.31;;;8.03;100.00
67015;BME280;1033;52.560;13.374;2024-03-23T03:33:16;100041.63;;;7.96;100.00
67015;BME280;1033;52.560;13.374;2024-03-23T03:35:44;100038.28;;;7.81;100.00
67015;BME280;1033;52.560;13.374;2024-03-23T03:38:12;100037.28;;;8.02;100.00
67015;BME280;1033;52.560;13.374;2024-03-23T03:40:39;100039.75;;;7.97;100.00
67015;BME280;1033;52.560;13.374;2024-03-23T03:43:09;100042.41;;;7.64;100.00
67015;BME280;1033;52.560;13.374;2024-03-23T03:45:36;100041.97;;;7.67;100.00
67015;BME280;1033;52.560;13.374;2024-03-23T03:48:05;100029.56;;;7.72;100.00
67015;BME280;1033;52.560;13.374;2024-03-23T03:50:34;100038.22;;;7.61;100.00
67015;BME280;1033;52.560;13.374;2024-03-23T03:53:02;100046.47;;;7.40;100.00
67015;BME280;1033;52.560;13.374;2024-03-23T03:55:29;100043.97;;;7.38;100.00
67015;BME280;1033;52.560;13.374;2024-03-23T03:57:57;100034.47;;;7.42;100.00
67015;BME280;1033;52.560;13.374;2024-03-23T04:00:24;100024.50;;;7.36;100.00
67015;BME280;1033;52.560;13.374;2024-03-23T04:02:53;100024.34;;;7.45;100.00
67015;BME280;1033;52.560;13.374;2024-03-23T04:05:20;100028.72;;;7.59;100.00
67015;BME280;1033;52.560;13.374;2024-03-23T04:07:50;100021.84;;;7.43;100.00
67015;BME280;1033;52.560;13.374;2024-03-23T04:10:19;100025.38;;;7.43;100.00
67015;BME280;1033;52.560;13.374;2024-03-23T04:12:47;100012.88;;;7.23;100.00
67015;BME280;1033;52.560;13.374;2024-03-23T04:15:19;100026.16;;;7.37;100.00
67015;BME280;1033;52.560;13.374;2024-03-23T04:17:46;100025.69;;;7.14;100.00
67015;BME280;1033;52.560;13.374;2024-03-23T04:20:15;100022.63;;;6.83;100.00
67015;BME280;1033;52.560;13.374;2024-03-23T04:22:43;100028.81;;;6.77;100.00
67015;BME280;1033;52.560;13.374;2024-03-23T04:25:14;100025.44;;;6.68;100.00
67015;BME280;1033;52.560;13.374;2024-03-23T04:27:41;100020.28;;;6.67;100.00
67015;BME280;1033;52.560;13.374;2024-03-23T04:30:11;100014.72;;;6.75;100.00
67015;BME280;1033;52.560;13.374;2024-03-23T04:32:42;100011.13;;;7.02;100.00
67015;BME280;1033;52.560;13.374;2024-03-23T04:35:11;100005.59;;;7.10;100.00
67015;BME280;1033;52.560;13.374;2024-03-23T04:37:40;100005.66;;;7.30;100.00
67015;BME280;1033;52.560;13.374;2024-03-23T04:40:08;100006.41;;;7.11;100.00
67015;BME280;1033;52.560;13.374;2024-03-23T04:42:39;99996.72;;;7.16;100.00
67015;BME280;1033;52.560;13.374;2024-03-23T04:45:08;99993.16;;;7.09;100.00
67015;BME280;1033;52.560;13.374;2024-03-23T04:47:37;99997.31;;;7.18;100.00
67015;BME280;1033;52.560;13.374;2024-03-23T04:50:06;99994.22;;;7.21;100.00
67015;BME280;1033;52.560;13.374;2024-03-23T04:52:34;99987.22;;;7.20;100.00
67015;BME280;1033;52.560;13.374;2024-03-23T04:55:03;99977.28;;;7.27;100.00
67015;BME280;1033;52.560;13.374;2024-03-23T04:57:32;99980.22;;;7.39;100.00
67015;BME280;1033;52.560;13.374;2024-03-23T05:00:00;99971.50;;;7.37;100.00
67015;BME280;1033;52.560;13.374;2024-03-23T05:02:31;99966.97;;;7.31;100.00
67015;BME280;1033;52.560;13.374;2024-03-23T05:04:59;99963.81;;;7.27;100.00
67015;BME280;1033;52.560;13.374;2024-03-23T05:07:28;99966.72;;;7.32;100.00
67015;BME280;1033;52.560;13.374;2024-03-23T05:09:56;99970.44;;;7.31;100.00
67015;BME280;1033;52.560;13.374;2024-03-23T05:12:23;99974.38;;;7.16;100.00
67015;BME280;1033;52.560;13.374;2024-03-23T05:14:52;99964.00;;;7.19;100.00
67015;BME280;1033;52.560;13.374;2024-03-23T05:17:21;99965.63;;;7.07;100.00
67015;BME280;1033;52.560;13.374;2024-03-23T05:19:49;99968.53;;;7.12;100.00
67015;BME280;1033;52.560;13.374;2024-03-23T05:22:17;99953.19;;;6.99;100.00
67015;BME280;1033;52.560;13.374;2024-03-23T05:24:46;99953.00;;;7.08;100.00
67015;BME280;1033;52.560;13.374;2024-03-23T05:27:13;99960.25;;;7.07;100.00
67015;BME280;1033;52.560;13.374;2024-03-23T05:29:41;99955.31;;;7.11;100.00
67015;BME280;1033;52.560;13.374;2024-03-23T05:32:08;99954.47;;;7.17;100.00
67015;BME280;1033;52.560;13.374;2024-03-23T05:34:38;99949.06;;;6.97;100.00
67015;BME280;1033;52.560;13.374;2024-03-23T05:37:05;99951.16;;;7.08;100.00
67015;BME280;1033;52.560;13.374;2024-03-23T05:39:33;99950.47;;;6.93;100.00
67015;BME280;1033;52.560;13.374;2024-03-23T05:42:01;99945.75;;;7.08;100.00
67015;BME280;1033;52.560;13.374;2024-03-23T05:44:29;99943.28;;;7.13;100.00
67015;BME280;1033;52.560;13.374;2024-03-23T05:46:58;99936.22;;;6.99;100.00
67015;BME280;1033;52.560;13.374;2024-03-23T05:49:26;99929.84;;;7.07;100.00
67015;BME280;1033;52.560;13.374;2024-03-23T05:51:55;99928.59;;;7.09;100.00
67015;BME280;1033;52.560;13.374;2024-03-23T05:54:23;99923.44;;;7.14;100.00
67015;BME280;1033;52.560;13.374;2024-03-23T05:56:53;99913.09;;;7.11;100.00
67015;BME280;1033;52.560;13.374;2024-03-23T05:59:22;99906.88;;;7.17;100.00
67015;BME280;1033;52.560;13.374;2024-03-23T06:01:49;99911.03;;;7.20;100.00
67015;BME280;1033;52.560;13.374;2024-03-23T06:04:18;99911.03;;;7.20;100.00
67015;BME280;1033;52.560;13.374;2024-03-23T06:06:45;99897.56;;;7.13;100.00
67015;BME280;1033;52.560;13.374;2024-03-23T06:09:14;99902.75;;;7.15;100.00
67015;BME280;1033;52.560;13.374;2024-03-23T06:11:41;99896.94;;;7.18;100.00
67015;BME280;1033;52.560;13.374;2024-03-23T06:14:10;99886.22;;;7.24;100.00
67015;BME280;1033;52.560;13.374;2024-03-23T06:16:37;99887.44;;;7.28;100.00
67015;BME280;1033;52.560;13.374;2024-03-23T06:19:05;99888.09;;;7.43;100.00
67015;BME280;1033;52.560;13.374;2024-03-23T06:21:33;99885.19;;;7.25;100.00
67015;BME280;1033;52.560;13.374;2024-03-23T06:24:01;99872.72;;;7.18;100.00
67015;BME280;1033;52.560;13.374;2024-03-23T06:26:30;99882.28;;;7.20;100.00
67015;BME280;1033;52.560;13.374;2024-03-23T06:28:58;99875.81;;;7.08;100.00
67015;BME280;1033;52.560;13.374;2024-03-23T06:31:26;99878.34;;;7.29;100.00
67015;BME280;1033;52.560;13.374;2024-03-23T06:33:56;99881.22;;;7.21;100.00
67015;BME280;1033;52.560;13.374;2024-03-23T06:36:23;99874.38;;;7.06;100.00
67015;BME280;1033;52.560;13.374;2024-03-23T06:38:51;99877.09;;;7.25;100.00
67015;BME280;1033;52.560;13.374;2024-03-23T06:41:20;99879.13;;;7.17;100.00
67015;BME280;1033;52.560;13.374;2024-03-23T06:43:49;99870.88;;;7.18;100.00
67015;BME280;1033;52.560;13.374;2024-03-23T06:46:16;99862.38;;;7.21;100.00
67015;BME280;1033;52.560;13.374;2024-03-23T06:48:45;99860.53;;;7.41;100.00
67015;BME280;1033;52.560;13.374;2024-03-23T06:51:12;99862.81;;;7.51;100.00
67015;BME280;1033;52.560;13.374;2024-03-23T06:53:41;99852.88;;;7.58;100.00
67015;BME280;1033;52.560;13.374;2024-03-23T06:56:08;99852.66;;;7.47;100.00
67015;BME280;1033;52.560;13.374;2024-03-23T06:58:36;99851.84;;;7.66;100.00
67015;BME280;1033;52.560;13.374;2024-03-23T07:01:05;99851.84;;;7.79;100.00
67015;BME280;1033;52.560;13.374;2024-03-23T07:03:34;99848.53;;;7.64;100.00
67015;BME280;1033;52.560;13.374;2024-03-23T07:06:01;99845.22;;;7.49;100.00
67015;BME280;1033;52.560;13.374;2024-03-23T07:08:29;99829.09;;;7.35;100.00
67015;BME280;1033;52.560;13.374;2024-03-23T07:10:56;99842.75;;;7.54;100.00
67015;BME280;1033;52.560;13.374;2024-03-23T07:13:25;99842.09;;;7.78;100.00
67015;BME280;1033;52.560;13.374;2024-03-23T07:15:52;99841.06;;;7.79;100.00
67015;BME280;1033;52.560;13.374;2024-03-23T07:18:23;99841.91;;;7.73;100.00
67015;BME280;1033;52.560;13.374;2024-03-23T07:20:53;99843.75;;;7.72;100.00
67015;BME280;1033;52.560;13.374;2024-03-23T07:23:23;99839.00;;;7.41;100.00
67015;BME280;1033;52.560;13.374;2024-03-23T07:25:59;99851.22;;;7.24;100.00
67015;BME280;1033;52.560;13.374;2024-03-23T07:28:28;99835.28;;;7.29;100.00
67015;BME280;1033;52.560;13.374;2024-03-23T07:31:03;99831.13;;;7.47;100.00
67015;BME280;1033;52.560;13.374;2024-03-23T07:33:32;99838.38;;;7.53;100.00
67015;BME280;1033;52.560;13.374;2024-03-23T07:36:00;99828.66;;;7.65;100.00
67015;BME280;1033;52.560;13.374;2024-03-23T07:38:29;99827.44;;;7.34;100.00
67015;BME280;1033;52.560;13.374;2024-03-23T07:41:06;99834.03;;;7.12;100.00
67015;BME280;1033;52.560;13.374;2024-03-23T07:43:35;99826.16;;;7.17;100.00
67015;BME280;1033;52.560;13.374;2024-03-23T07:46:03;99825.97;;;7.19;100.00
67015;BME280;1033;52.560;13.374;2024-03-23T07:48:33;99824.13;;;7.26;100.00
67015;BME280;1033;52.560;13.374;2024-03-23T07:51:02;99816.25;;;7.11;100.00
67015;BME280;1033;52.560;13.374;2024-03-23T07:53:31;99812.50;;;6.99;100.00
67015;BME280;1033;52.560;13.374;2024-03-23T07:56:00;99814.19;;;7.07;100.00
67015;BME280;1033;52.560;13.374;2024-03-23T07:58:28;99821.19;;;7.01;100.00
67015;BME280;1033;52.560;13.374;2024-03-23T08:00:56;99828.44;;;7.01;100.00
67015;BME280;1033;52.560;13.374;2024-03-23T08:03:32;99824.03;;;6.80;100.00
67015;BME280;1033;52.560;13.374;2024-03-23T08:06:07;99820.53;;;6.73;100.00
67015;BME280;1033;52.560;13.374;2024-03-23T08:08:36;99822.56;;;6.58;100.00
67015;BME280;1033;52.560;13.374;2024-03-23T08:11:07;99818.19;;;6.57;100.00
67015;BME280;1033;52.560;13.374;2024-03-23T08:13:39;99818.19;;;6.57;100.00
67015;BME280;1033;52.560;13.374;2024-03-23T08:16:07;99812.03;;;6.63;100.00
67015;BME280;1033;52.560;13.374;2024-03-23T08:18:37;99816.94;;;6.52;100.00
67015;BME280;1033;52.560;13.374;2024-03-23T08:21:05;99806.59;;;6.49;100.00
67015;BME280;1033;52.560;13.374;2024-03-23T08:23:34;99805.38;;;6.52;100.00
67015;BME280;1033;52.560;13.374;2024-03-23T08:26:04;99805.91;;;6.34;100.00
67015;BME280;1033;52.560;13.374;2024-03-23T08:28:32;99802.13;;;6.16;100.00
67015;BME280;1033;52.560;13.374;2024-03-23T08:31:02;99806.41;;;6.03;100.00
67015;BME280;1033;52.560;13.374;2024-03-23T08:33:30;99807.88;;;6.06;100.00
67015;BME280;1033;52.560;13.374;2024-03-23T08:36:00;99805.41;;;6.04;100.00
67015;BME280;1033;52.560;13.374;2024-03-23T08:38:30;99804.94;;;6.01;100.00
67015;BME280;1033;52.560;13.374;2024-03-23T08:40:58;99802.63;;;5.91;100.00
67015;BME280;1033;52.560;13.374;2024-03-23T08:43:28;99797.09;;;5.65;100.00
67015;BME280;1033;52.560;13.374;2024-03-23T08:46:04;99797.44;;;5.55;100.00
67015;BME280;1033;52.560;13.374;2024-03-23T08:48:34;99792.91;;;5.56;100.00
67015;BME280;1033;52.560;13.374;2024-03-23T08:51:03;99799.75;;;5.65;100.00
67015;BME280;1033;52.560;13.374;2024-03-23T08:53:32;99799.34;;;5.61;100.00
67015;BME280;1033;52.560;13.374;2024-03-23T08:56:01;99800.66;;;5.44;100.00
67015;BME280;1033;52.560;13.374;2024-03-23T08:58:30;99802.22;;;5.32;100.00
67015;BME280;1033;52.560;13.374;2024-03-23T09:01:02;99802.84;;;5.34;100.00
67015;BME280;1033;52.560;13.374;2024-03-23T09:03:33;99810.78;;;5.21;100.00
67015;BME280;1033;52.560;13.374;2024-03-23T09:06:06;99802.94;;;5.19;100.00
67015;BME280;1033;52.560;13.374;2024-03-23T09:08:34;99803.00;;;5.26;100.00
67015;BME280;1033;52.560;13.374;2024-03-23T09:11:05;99810.69;;;5.08;100.00
67015;BME280;1033;52.560;13.374;2024-03-23T09:13:34;99814.38;;;5.07;100.00
67015;BME280;1033;52.560;13.374;2024-03-23T09:16:02;99810.69;;;5.08;100.00
67015;BME280;1033;52.560;13.374;2024-03-23T09:18:32;99807.78;;;5.09;100.00
67015;BME280;1033;52.560;13.374;2024-03-23T09:21:01;99808.94;;;5.00;100.00
67015;BME280;1033;52.560;13.374;2024-03-23T09:23:30;99826.00;;;4.93;100.00
67015;BME280;1033;52.560;13.374;2024-03-23T09:25:57;99830.16;;;4.95;100.00
67015;BME280;1033;52.560;13.374;2024-03-23T09:28:29;99825.00;;;4.94;100.00
67015;BME280;1033;52.560;13.374;2024-03-23T09:31:03;99832.91;;;5.02;100.00
67015;BME280;1033;52.560;13.374;2024-03-23T09:33:31;99824.34;;;5.13;100.00
67015;BME280;1033;52.560;13.374;2024-03-23T09:35:59;99827.03;;;5.13;100.00
67015;BME280;1033;52.560;13.374;2024-03-23T09:38:32;99823.84;;;5.03;100.00
67015;BME280;1033;52.560;13.374;2024-03-23T09:40:59;99823.84;;;5.03;100.00
67015;BME280;1033;52.560;13.374;2024-03-23T09:43:28;99819.75;;;5.07;100.00
67015;BME280;1033;52.560;13.374;2024-03-23T09:45:56;99836.59;;;5.01;100.00
67015;BME280;1033;52.560;13.374;2024-03-23T09:48:24;99832.75;;;5.10;100.00
67015;BME280;1033;52.560;13.374;2024-03-23T09:50:51;99837.25;;;5.03;100.00
67015;BME280;1033;52.560;13.374;2024-03-23T09:53:20;99833.66;;;4.96;100.00
67015;BME280;1033;52.560;13.374;2024-03-23T09:55:50;99845.97;;;4.90;100.00
67015;BME280;1033;52.560;13.374;2024-03-23T09:58:18;99849.13;;;4.94;100.00
67015;BME280;1033;52.560;13.374;2024-03-23T10:00:46;99846.81;;;4.91;100.00
67015;BME280;1033;52.560;13.374;2024-03-23T10:03:14;99852.16;;;4.91;100.00
67015;BME280;1033;52.560;13.374;2024-03-23T10:05:41;99856.38;;;5.00;100.00
67015;BME280;1033;52.560;13.374;2024-03-23T10:08:19;99873.75;;;5.04;100.00
67015;BME280;1033;52.560;13.374;2024-03-23T10:10:48;99865.31;;;4.86;100.00
67015;BME280;1033;52.560;13.374;2024-03-23T10:13:25;99879.84;;;4.76;100.00
67015;BME280;1033;52.560;13.374;2024-03-23T10:15:56;99878.31;;;5.03;100.00
67015;BME280;1033;52.560;13.374;2024-03-23T10:18:26;99892.63;;;4.96;100.00
67015;BME280;1033;52.560;13.374;2024-03-23T10:21:07;99888.06;;;5.11;100.00
67015;BME280;1033;52.560;13.374;2024-03-23T10:23:38;99886.75;;;5.49;100.00
67015;BME280;1033;52.560;13.374;2024-03-23T10:26:18;99882.53;;;5.61;100.00
67015;BME280;1033;52.560;13.374;2024-03-23T10:28:52;99893.97;;;5.49;100.00
67015;BME280;1033;52.560;13.374;2024-03-23T10:31:22;99896.28;;;5.09;100.00
67015;BME280;1033;52.560;13.374;2024-03-23T10:33:49;99899.16;;;4.87;100.00
67015;BME280;1033;52.560;13.374;2024-03-23T10:36:18;99892.50;;;4.82;100.00
67015;BME280;1033;52.560;13.374;2024-03-23T10:38:47;99897.47;;;4.86;100.00
67015;BME280;1033;52.560;13.374;2024-03-23T10:41:17;99904.28;;;5.45;100.00
67015;BME280;1033;52.560;13.374;2024-03-23T10:43:46;99901.38;;;5.96;100.00
67015;BME280;1033;52.560;13.374;2024-03-23T10:46:15;99906.31;;;5.92;100.00
67015;BME280;1033;52.560;13.374;2024-03-23T10:48:42;99899.63;;;6.50;100.00
67015;BME280;1033;52.560;13.374;2024-03-23T10:51:11;99892.94;;;6.33;100.00
67015;BME280;1033;52.560;13.374;2024-03-23T10:53:41;99894.63;;;6.41;100.00
67015;BME280;1033;52.560;13.374;2024-03-23T10:56:09;99894.44;;;6.49;100.00
67015;BME280;1033;52.560;13.374;2024-03-23T10:58:42;99884.38;;;6.58;100.00
67015;BME280;1033;52.560;13.374;2024-03-23T11:01:11;99885.53;;;6.42;100.00
67015;BME280;1033;52.560;13.374;2024-03-23T11:03:43;99898.03;;;6.63;100.00
67015;BME280;1033;52.560;13.374;2024-03-23T11:06:33;99893.66;;;6.55;100.00
67015;BME280;1033;52.560;13.374;2024-03-23T11:09:01;99889.00;;;6.77;100.00
67015;BME280;1033;52.560;13.374;2024-03-23T11:11:29;99895.66;;;6.94;100.00
67015;BME280;1033;52.560;13.374;2024-03-23T11:14:00;99901.44;;;6.97;100.00
67015;BME280;1033;52.560;13.374;2024-03-23T11:16:40;99904.41;;;7.22;100.00
67015;BME280;1033;52.560;13.374;2024-03-23T11:19:34;99909.31;;;6.99;100.00
67015;BME280;1033;52.560;13.374;2024-03-23T11:22:03;99905.16;;;6.90;97.73
67015;BME280;1033;52.560;13.374;2024-03-23T11:24:31;99905.59;;;7.00;99.77
67015;BME280;1033;52.560;13.374;2024-03-23T11:27:00;99905.88;;;7.31;98.27
67015;BME280;1033;52.560;13.374;2024-03-23T11:29:31;99905.25;;;7.56;100.00
67015;BME280;1033;52.560;13.374;2024-03-23T11:31:59;99895.31;;;7.76;100.00
67015;BME280;1033;52.560;13.374;2024-03-23T11:34:29;99901.94;;;7.80;99.04
67015;BME280;1033;52.560;13.374;2024-03-23T11:37:05;99907.16;;;7.88;98.83
67015;BME280;1033;52.560;13.374;2024-03-23T11:39:32;99912.72;;;8.13;100.00
67015;BME280;1033;52.560;13.374;2024-03-23T11:42:01;99908.28;;;8.51;99.89
67015;BME280;1033;52.560;13.374;2024-03-23T11:44:28;99918.06;;;8.39;95.64
67015;BME280;1033;52.560;13.374;2024-03-23T11:47:08;99921.38;;;8.35;94.94
67015;BME280;1033;52.560;13.374;2024-03-23T11:49:35;99916.75;;;8.61;97.31
67015;BME280;1033;52.560;13.374;2024-03-23T11:52:07;99922.16;;;8.55;96.53
67015;BME280;1033;52.560;13.374;2024-03-23T11:54:34;99927.38;;;8.50;95.81
67015;BME280;1033;52.560;13.374;2024-03-23T11:57:03;99933.63;;;8.95;97.96
67015;BME280;1033;52.560;13.374;2024-03-23T11:59:32;99928.91;;;9.22;95.44
67015;BME280;1033;52.560;13.374;2024-03-23T12:02:08;99930.50;;;8.91;92.84
67015;BME280;1033;52.560;13.374;2024-03-23T12:04:37;99931.63;;;8.77;93.68
67015;BME280;1033;52.560;13.374;2024-03-23T12:07:10;99941.28;;;8.47;96.45
67015;BME280;1033;52.560;13.374;2024-03-23T12:09:38;99933.63;;;8.11;98.42
67015;BME280;1033;52.560;13.374;2024-03-23T12:12:10;99935.50;;;8.37;98.98
67015;BME280;1033;52.560;13.374;2024-03-23T12:14:37;99935.94;;;8.07;97.39
67015;BME280;1033;52.560;13.374;2024-03-23T12:17:14;99925.31;;;8.19;99.53
67015;BME280;1033;52.560;13.374;2024-03-23T12:19:42;99927.63;;;8.22;98.43
67015;BME280;1033;52.560;13.374;2024-03-23T12:22:14;99914.75;;;8.37;99.12
67015;BME280;1033;52.560;13.374;2024-03-23T12:24:41;99918.72;;;8.08;99.98
67015;BME280;1033;52.560;13.374;2024-03-23T12:27:12;99912.31;;;8.03;99.52
67015;BME280;1033;52.560;13.374;2024-03-23T12:29:39;99912.69;;;8.19;99.99
67015;BME280;1033;52.560;13.374;2024-03-23T12:32:08;99908.72;;;8.28;100.00
67015;BME280;1033;52.560;13.374;2024-03-23T12:34:36;99911.19;;;8.50;100.00
67015;BME280;1033;52.560;13.374;2024-03-23T12:37:05;99904.13;;;8.49;96.86
67015;BME280;1033;52.560;13.374;2024-03-23T12:39:33;99908.94;;;8.40;98.27
67015;BME280;1033;52.560;13.374;2024-03-23T12:42:02;99910.34;;;8.56;96.20
67015;BME280;1033;52.560;13.374;2024-03-23T12:44:29;99905.91;;;8.75;96.28
67015;BME280;1033;52.560;13.374;2024-03-23T12:46:58;99910.88;;;8.78;93.78
67015;BME280;1033;52.560;13.374;2024-03-23T12:49:24;99911.81;;;8.96;92.05
67015;BME280;1033;52.560;13.374;2024-03-23T12:51:57;99911.56;;;9.04;91.06
67015;BME280;1033;52.560;13.374;2024-03-23T12:54:24;99908.06;;;9.35;90.78
67015;BME280;1033;52.560;13.374;2024-03-23T12:56:55;99910.88;;;9.15;88.93
67015;BME280;1033;52.560;13.374;2024-03-23T12:59:22;99910.66;;;9.17;90.44
67015;BME280;1033;52.560;13.374;2024-03-23T13:01:50;99909.06;;;9.41;89.95
67015;BME280;1033;52.560;13.374;2024-03-23T13:04:17;99913.41;;;9.42;88.13
67015;BME280;1033;52.560;13.374;2024-03-23T13:06:46;99912.78;;;9.71;87.83
67015;BME280;1033;52.560;13.374;2024-03-23T13:09:14;99910.41;;;9.56;86.62
67015;BME280;1033;52.560;13.374;2024-03-23T13:11:43;99914.09;;;9.31;87.07
67015;BME280;1033;52.560;13.374;2024-03-23T13:14:11;99911.41;;;9.31;88.86
67015;BME280;1033;52.560;13.374;2024-03-23T13:16:41;99906.53;;;9.14;89.77
67015;BME280;1033;52.560;13.374;2024-03-23T13:19:08;99910.38;;;9.00;89.09
67015;BME280;1033;52.560;13.374;2024-03-23T13:21:36;99908.94;;;9.29;90.45
67015;BME280;1033;52.560;13.374;2024-03-23T13:24:03;99900.72;;;9.11;89.88
67015;BME280;1033;52.560;13.374;2024-03-23T13:26:45;99897.78;;;9.50;90.92
67015;BME280;1033;52.560;13.374;2024-03-23T13:29:12;99905.13;;;9.37;89.70
67015;BME280;1033;52.560;13.374;2024-03-23T13:31:40;99895.69;;;9.21;87.87
67015;BME280;1033;52.560;13.374;2024-03-23T13:34:07;99897.91;;;9.31;89.34
67015;BME280;1033;52.560;13.374;2024-03-23T13:36:35;99890.84;;;9.61;89.83
67015;BME280;1033;52.560;13.374;2024-03-23T13:39:03;99897.09;;;10.04;88.43
67015;BME280;1033;52.560;13.374;2024-03-23T13:41:32;99895.44;;;10.03;86.96
67015;BME280;1033;52.560;13.374;2024-03-23T13:44:01;99897.09;;;10.04;86.32
67015;BME280;1033;52.560;13.374;2024-03-23T13:46:30;99891.53;;;9.75;86.33
67015;BME280;1033;52.560;13.374;2024-03-23T13:48:57;99892.34;;;9.26;90.13
67015;BME280;1033;52.560;13.374;2024-03-23T13:51:26;99897.19;;;9.48;88.80
67015;BME280;1033;52.560;13.374;2024-03-23T13:53:54;99898.88;;;9.43;88.26
67015;BME280;1033;52.560;13.374;2024-03-23T13:56:23;99896.91;;;9.81;87.42
67015;BME280;1033;52.560;13.374;2024-03-23T13:58:50;99893.88;;;10.39;85.06
67015;BME280;1033;52.560;13.374;2024-03-23T14:01:20;99890.47;;;10.43;83.33
67015;BME280;1033;52.560;13.374;2024-03-23T14:03:47;99904.06;;;10.19;83.36